Time;durP1;ratioP1;P1;durP2;ratioP2;P2;SDS_P1;SDS_P2;PMS_P1;PMS_P2;Temp;Humidity;BMP_temperature;BMP_pressure;BME280_temperature;BME280_humidity;BME280_pressure;Samples;Min_cycle;Max_cycle;Signal;HPM_P1;HPM_P2
2022/12/16 00:01:06;;;;;;;;;;;;;;;;;;6262013;22;19923;-87
2022/12/16 00:03:32;;;;;;;;;;;;;;;;;;6260214;22;19919;-87
2022/12/16 00:05:58;;;;;;;;;;;;;;;;;;6260855;22;19919;-86
2022/12/16 00:08:24;;;;;;;;;;;;;;;;;;6261030;22;20064;-86
2022/12/16 00:10:53;;;;;;;;;;;;;;;;;;6259522;22;19982;-86
2022/12/16 00:13:19;;;;;;;;;;;;;;;;;;6263404;22;20034;-86
2022/12/16 00:15:45;;;;;;;;;;;;;;;;;;6259557;22;19943;-86
2022/12/16 00:18:11;;;;;;;;;;;;;;;;;;6262090;22;19946;-87
2022/12/16 00:20:37;;;;;;;;;;;;;;;;;;6234036;22;19926;-86
2022/12/16 00:23:03;;;;;;;;;;;;;;;;;;6259713;22;20088;-87
2022/12/16 00:25:29;;;;;;;;;;;;;;;;;;6259823;22;19923;-86
2022/12/16 00:27:55;;;;;;;;;;;;;;;;;;6256435;22;20338;-86
2022/12/16 00:30:21;;;;;;;;;;;;;;;;;;6260825;22;19926;-87
2022/12/16 00:32:47;;;;;;;;;;;;;;;;;;6254780;22;19919;-87
2022/12/16 00:35:13;;;;;;;;;;;;;;;;;;6256311;22;19972;-87
2022/12/16 00:37:39;;;;;;;;;;;;;;;;;;6256106;22;19926;-87
2022/12/16 00:40:05;;;;;;;;;;;;;;;;;;6259414;22;19930;-87
2022/12/16 00:42:31;;;;;;;;;;;;;;;;;;6258396;22;19943;-87
2022/12/16 00:44:57;;;;;;;;;;;;;;;;;;6257991;22;19919;-87
2022/12/16 00:47:23;;;;;;;;;;;;;;;;;;6259977;22;20423;-87
2022/12/16 00:49:49;;;;;;;;;;;;;;;;;;6255955;22;19930;-87
2022/12/16 00:52:15;;;;;;;;;;;;;;;;;;6261012;22;20018;-87
2022/12/16 00:54:41;;;;;;;;;;;;;;;;;;6254748;22;19923;-86
2022/12/16 00:57:07;;;;;;;;;;;;;;;;;;6258230;22;20184;-88
2022/12/16 00:59:33;;;;;;;;;;;;;;;;;;6261043;22;19919;-87
2022/12/16 01:01:59;;;;;;;;;;;;;;;;;;6260373;22;20340;-87
2022/12/16 01:04:25;;;;;;;;;;;;;;;;;;6260995;22;19926;-87
2022/12/16 01:06:53;;;;;;;;;;;;;;;;;;6255882;22;20376;-87
2022/12/16 01:09:19;;;;;;;;;;;;;;;;;;6256581;22;19986;-87
2022/12/16 01:11:45;;;;;;;;;;;;;;;;;;6258070;22;19990;-87
2022/12/16 01:14:11;;;;;;;;;;;;;;;;;;6262478;22;19923;-87
2022/12/16 01:16:37;;;;;;;;;;;;;;;;;;6260823;22;20107;-87
2022/12/16 01:19:05;;;;;;;;;;;;;;;;;;6260008;22;19919;-87
2022/12/16 01:21:31;;;;;;;;;;;;;;;;;;6256690;22;19985;-87
2022/12/16 01:23:58;;;;;;;;;;;;;;;;;;6231852;22;20551;-87
2022/12/16 01:26:24;;;;;;;;;;;;;;;;;;6236777;22;19929;-87
2022/12/16 01:28:50;;;;;;;;;;;;;;;;;;6237863;22;19927;-88
2022/12/16 01:31:16;;;;;;;;;;;;;;;;;;6263453;22;19918;-88
2022/12/16 01:33:42;;;;;;;;;;;;;;;;;;6261119;22;19923;-87
2022/12/16 01:36:08;;;;;;;;;;;;;;;;;;6235208;22;20146;-87
2022/12/16 01:38:34;;;;;;;;;;;;;;;;;;6256291;22;19919;-87
2022/12/16 01:41:00;;;;;;;;;;;;;;;;;;6236221;22;20251;-87
2022/12/16 01:43:26;;;;;;;;;;;;;;;;;;6237705;22;19918;-87
2022/12/16 01:45:52;;;;;;;;;;;;;;;;;;6259569;22;20232;-87
2022/12/16 01:48:18;;;;;;;;;;;;;;;;;;6239621;22;19925;-87
2022/12/16 01:50:44;;;;;;;;;;;;;;;;;;6235106;22;19914;-87
2022/12/16 01:53:11;;;;;;;;;;;;;;;;;;6237477;22;20022;-87
2022/12/16 01:55:37;;;;;;;;;;;;;;;;;;6262739;22;19949;-87
2022/12/16 01:58:03;;;;;;;;;;;;;;;;;;6237827;22;20334;-86
2022/12/16 02:06:30;;;;;;;;;;;;;;;;;;6229134;23;19923;-88
2022/12/16 02:08:56;;;;;;;;;;;;;;;;;;6173783;23;19950;-87
2022/12/16 02:11:22;;;;;;;;;;;;;;;;;;6201647;23;19962;-88
2022/12/16 02:13:48;;;;;;;;;;;;;;;;;;6173286;23;19995;-87
2022/12/16 02:16:14;;;;;;;;;;;;;;;;;;6175525;23;20351;-88
2022/12/16 02:18:40;;;;;;;;;;;;;;;;;;6172067;23;19919;-88
2022/12/16 02:21:06;;;;;;;;;;;;;;;;;;6201674;23;19935;-88
2022/12/16 02:23:32;;;;;;;;;;;;;;;;;;6175754;23;19919;-87
2022/12/16 02:25:58;;;;;;;;;;;;;;;;;;6175168;23;19927;-88
2022/12/16 02:28:24;;;;;;;;;;;;;;;;;;6177336;23;19919;-87
2022/12/16 02:30:50;;;;;;;;;;;;;;;;;;6197141;23;19990;-87
2022/12/16 02:33:16;;;;;;;;;;;;;;;;;;6175235;23;19919;-87
2022/12/16 02:35:42;;;;;;;;;;;;;;;;;;6199004;23;20055;-87
2022/12/16 02:38:11;;;;;;;;;;;;;;;;;;6248058;22;19922;-87
2022/12/16 02:40:37;;;;;;;;;;;;;;;;;;6261248;22;19918;-87
2022/12/16 02:43:03;;;;;;;;;;;;;;;;;;6236975;22;20032;-87
2022/12/16 02:45:29;;;;;;;;;;;;;;;;;;6237216;22;19918;-88
2022/12/16 02:47:55;;;;;;;;;;;;;;;;;;6235150;22;19941;-87
2022/12/16 02:50:23;;;;;;;;;;;;;;;;;;6262721;22;19926;-87
2022/12/16 02:52:50;;;;;;;;;;;;;;;;;;6259972;22;20243;-87
2022/12/16 02:55:16;;;;;;;;;;;;;;;;;;6236780;22;19923;-88
2022/12/16 02:57:42;;;;;;;;;;;;;;;;;;6236505;22;20303;-87
2022/12/16 03:00:10;;;;;;;;;;;;;;;;;;6264230;22;19919;-88
2022/12/16 03:02:39;;;;;;;;;;;;;;;;;;6264814;22;19915;-87
2022/12/16 03:05:05;;;;;;;;;;;;;;;;;;6240512;22;19918;-87
2022/12/16 03:07:31;;;;;;;;;;;;;;;;;;6241288;22;19933;-87
2022/12/16 03:09:57;;;;;;;;;;;;;;;;;;6240044;22;19919;-87
2022/12/16 03:12:23;;;;;;;;;;;;;;;;;;6267849;22;20365;-88
2022/12/16 03:14:52;;;;;;;;;;;;;;;;;;6240085;22;20021;-87
2022/12/16 03:17:18;;;;;;;;;;;;;;;;;;6237741;22;20307;-87
2022/12/16 03:19:45;;;;;;;;;;;;;;;;;;6236542;22;19919;-87
2022/12/16 03:22:10;;;;;;;;;;;;;;;;;;6265429;22;19919;-87
2022/12/16 03:24:39;;;;;;;;;;;;;;;;;;6239181;22;19926;-88
2022/12/16 03:27:05;;;;;;;;;;;;;;;;;;6267325;22;19925;-87
2022/12/16 03:29:31;;;;;;;;;;;;;;;;;;6241278;22;19922;-87
2022/12/16 03:32:00;;;;;;;;;;;;;;;;;;6263649;22;19919;-87
2022/12/16 03:34:26;;;;;;;;;;;;;;;;;;6239287;22;19919;-87
2022/12/16 03:36:52;;;;;;;;;;;;;;;;;;6261663;22;19990;-88
2022/12/16 03:39:18;;;;;;;;;;;;;;;;;;6238364;22;19918;-87
2022/12/16 03:41:44;;;;;;;;;;;;;;;;;;6238112;22;19919;-88
2022/12/16 03:44:10;;;;;;;;;;;;;;;;;;6240608;22;19927;-88
2022/12/16 03:46:36;;;;;;;;;;;;;;;;;;6241659;22;19938;-87
2022/12/16 03:49:05;;;;;;;;;;;;;;;;;;6238953;22;19919;-87
2022/12/16 03:51:31;;;;;;;;;;;;;;;;;;6290114;22;19988;-87
2022/12/16 03:53:57;;;;;;;;;;;;;;;;;;6235358;22;20918;-87
2022/12/16 03:56:23;;;;;;;;;;;;;;;;;;6239017;22;19926;-88
2022/12/16 03:58:49;;;;;;;;;;;;;;;;;;6264970;22;20627;-88
2022/12/16 04:01:15;;;;;;;;;;;;;;;;;;6239292;22;20056;-87
2022/12/16 04:03:41;;;;;;;;;;;;;;;;;;6235492;22;20738;-87
2022/12/16 04:06:07;;;;;;;;;;;;;;;;;;6239366;22;19922;-87
2022/12/16 04:08:33;;;;;;;;;;;;;;;;;;6267017;22;19968;-87
2022/12/16 04:24:42;;;;;;;;;;;;;;;;;;6290431;22;19918;-87
2022/12/16 04:27:24;;;;;;;;;;;;;;;;;;6233755;22;20220;-88
